sensor_id;sensor_type;location;lat;lon;timestamp;pressure;altitude;pressure_sealevel;temperature;humidity
6345;BME280;3205;42.666;23.264;2022-10-16T00:01:49;94976.16;;;7.28;100.00
6345;BME280;3205;42.666;23.264;2022-10-16T00:04:16;94971.41;;;7.16;100.00
6345;BME280;3205;42.666;23.264;2022-10-16T00:06:43;94974.91;;;7.12;100.00
6345;BME280;3205;42.666;23.264;2022-10-16T00:09:10;94978.03;;;7.14;100.00
6345;BME280;3205;42.666;23.264;2022-10-16T00:11:39;94981.25;;;7.11;100.00
6345;BME280;3205;42.666;23.264;2022-10-16T00:14:09;94987.19;;;7.16;100.00
6345;BME280;3205;42.666;23.264;2022-10-16T00:16:37;94984.47;;;7.08;100.00
6345;BME280;3205;42.666;23.264;2022-10-16T00:19:04;94976.59;;;7.08;100.00
6345;BME280;3205;42.666;23.264;2022-10-16T00:21:33;94978.13;;;7.09;100.00
6345;BME280;3205;42.666;23.264;2022-10-16T00:24:01;94987.19;;;7.03;100.00
6345;BME280;3205;42.666;23.264;2022-10-16T00:26:30;94983.31;;;7.00;100.00
6345;BME280;3205;42.666;23.264;2022-10-16T00:28:58;94985.47;;;6.98;100.00
6345;BME280;3205;42.666;23.264;2022-10-16T00:31:25;94992.06;;;6.96;100.00
6345;BME280;3205;42.666;23.264;2022-10-16T00:33:52;94986.25;;;6.85;100.00
6345;BME280;3205;42.666;23.264;2022-10-16T00:36:20;94989.88;;;6.89;100.00
6345;BME280;3205;42.666;23.264;2022-10-16T00:38:50;94998.50;;;6.90;100.00
6345;BME280;3205;42.666;23.264;2022-10-16T00:41:20;94994.63;;;6.87;100.00
6345;BME280;3205;42.666;23.264;2022-10-16T00:43:50;94989.66;;;6.86;100.00
6345;BME280;3205;42.666;23.264;2022-10-16T00:46:20;94983.72;;;6.80;100.00
6345;BME280;3205;42.666;23.264;2022-10-16T00:48:50;94990.94;;;6.88;100.00
6345;BME280;3205;42.666;23.264;2022-10-16T00:51:19;94982.97;;;6.80;100.00
6345;BME280;3205;42.666;23.264;2022-10-16T00:53:48;94980.34;;;6.80;100.00
6345;BME280;3205;42.666;23.264;2022-10-16T00:56:16;94982.97;;;6.80;100.00
6345;BME280;3205;42.666;23.264;2022-10-16T00:58:43;94977.53;;;6.76;100.00
6345;BME280;3205;42.666;23.264;2022-10-16T01:01:10;94983.25;;;6.78;100.00
6345;BME280;3205;42.666;23.264;2022-10-16T01:03:38;94983.53;;;6.77;100.00
6345;BME280;3205;42.666;23.264;2022-10-16T01:06:14;94992.50;;;6.76;100.00
6345;BME280;3205;42.666;23.264;2022-10-16T01:08:49;94999.91;;;6.74;100.00
6345;BME280;3205;42.666;23.264;2022-10-16T01:11:22;95000.00;;;6.69;100.00
6345;BME280;3205;42.666;23.264;2022-10-16T01:13:55;94993.47;;;6.66;100.00
6345;BME280;3205;42.666;23.264;2022-10-16T01:16:30;94997.34;;;6.69;100.00
6345;BME280;3205;42.666;23.264;2022-10-16T01:19:05;94991.22;;;6.73;100.00
6345;BME280;3205;42.666;23.264;2022-10-16T01:21:38;94992.09;;;6.69;100.00
6345;BME280;3205;42.666;23.264;2022-10-16T01:24:12;94989.78;;;6.67;100.00
6345;BME280;3205;42.666;23.264;2022-10-16T01:27:00;94982.31;;;6.61;100.00
6345;BME280;3205;42.666;23.264;2022-10-16T01:29:31;94983.06;;;6.62;100.00
6345;BME280;3205;42.666;23.264;2022-10-16T01:32:06;94969.75;;;6.58;100.00
6345;BME280;3205;42.666;23.264;2022-10-16T01:34:44;94977.13;;;6.56;100.00
6345;BME280;3205;42.666;23.264;2022-10-16T01:37:18;94990.38;;;6.51;100.00
6345;BME280;3205;42.666;23.264;2022-10-16T01:39:48;94989.88;;;6.49;100.00
6345;BME280;3205;42.666;23.264;2022-10-16T01:42:21;94998.91;;;6.43;100.00
6345;BME280;3205;42.666;23.264;2022-10-16T01:44:51;94993.66;;;6.43;100.00
6345;BME280;3205;42.666;23.264;2022-10-16T01:47:22;94990.34;;;6.38;100.00
6345;BME280;3205;42.666;23.264;2022-10-16T01:49:52;94992.31;;;6.32;100.00
6345;BME280;3205;42.666;23.264;2022-10-16T01:52:23;94997.47;;;6.37;100.00
6345;BME280;3205;42.666;23.264;2022-10-16T01:54:54;94993.09;;;6.33;100.00
6345;BME280;3205;42.666;23.264;2022-10-16T01:57:24;94999.59;;;6.35;100.00
6345;BME280;3205;42.666;23.264;2022-10-16T01:59:54;94999.13;;;6.33;100.00
6345;BME280;3205;42.666;23.264;2022-10-16T02:02:23;95000.25;;;6.27;100.00
6345;BME280;3205;42.666;23.264;2022-10-16T02:04:58;94997.63;;;6.27;100.00
6345;BME280;3205;42.666;23.264;2022-10-16T02:07:27;95003.97;;;6.26;100.00
6345;BME280;3205;42.666;23.264;2022-10-16T02:09:54;95000.97;;;6.19;100.00
6345;BME280;3205;42.666;23.264;2022-10-16T02:12:27;95008.72;;;6.24;100.00
6345;BME280;3205;42.666;23.264;2022-10-16T02:14:55;95003.75;;;6.09;100.00
6345;BME280;3205;42.666;23.264;2022-10-16T02:17:22;95017.78;;;6.18;100.00
6345;BME280;3205;42.666;23.264;2022-10-16T02:19:52;95022.81;;;6.15;100.00
6345;BME280;3205;42.666;23.264;2022-10-16T02:22:25;95030.19;;;6.13;100.00
6345;BME280;3205;42.666;23.264;2022-10-16T02:24:56;95028.38;;;6.13;100.00
6345;BME280;3205;42.666;23.264;2022-10-16T02:27:29;95029.91;;;6.14;100.00
6345;BME280;3205;42.666;23.264;2022-10-16T02:30:03;95026.88;;;6.07;100.00
6345;BME280;3205;42.666;23.264;2022-10-16T02:32:35;95025.34;;;6.06;100.00
6345;BME280;3205;42.666;23.264;2022-10-16T02:35:04;95022.63;;;6.11;100.00
6345;BME280;3205;42.666;23.264;2022-10-16T02:37:32;95010.25;;;6.12;100.00
6345;BME280;3205;42.666;23.264;2022-10-16T02:39:59;95021.81;;;6.11;100.00
6345;BME280;3205;42.666;23.264;2022-10-16T02:42:33;95022.53;;;6.16;100.00
6345;BME280;3205;42.666;23.264;2022-10-16T02:45:00;95027.88;;;6.11;100.00
6345;BME280;3205;42.666;23.264;2022-10-16T02:47:27;95038.88;;;6.13;100.00
6345;BME280;3205;42.666;23.264;2022-10-16T02:49:54;95035.16;;;6.14;100.00
6345;BME280;3205;42.666;23.264;2022-10-16T02:52:21;95039.44;;;6.10;100.00
6345;BME280;3205;42.666;23.264;2022-10-16T02:54:47;95041.84;;;6.07;100.00
6345;BME280;3205;42.666;23.264;2022-10-16T02:57:14;95036.97;;;6.00;100.00
6345;BME280;3205;42.666;23.264;2022-10-16T02:59:43;95043.28;;;5.99;100.00
6345;BME280;3205;42.666;23.264;2022-10-16T03:02:10;95039.97;;;5.94;100.00
6345;BME280;3205;42.666;23.264;2022-10-16T03:04:37;95040.81;;;5.89;100.00
6345;BME280;3205;42.666;23.264;2022-10-16T03:07:04;95037.78;;;5.83;100.00
6345;BME280;3205;42.666;23.264;2022-10-16T03:09:31;95043.03;;;5.83;100.00
6345;BME280;3205;42.666;23.264;2022-10-16T03:11:57;95044.59;;;5.84;100.00
6345;BME280;3205;42.666;23.264;2022-10-16T03:14:24;95046.16;;;5.85;100.00
6345;BME280;3205;42.666;23.264;2022-10-16T03:16:52;95034.59;;;5.86;100.00
6345;BME280;3205;42.666;23.264;2022-10-16T03:19:20;95039.34;;;5.84;100.00
6345;BME280;3205;42.666;23.264;2022-10-16T03:21:46;95046.16;;;5.85;100.00
6345;BME280;3205;42.666;23.264;2022-10-16T03:24:13;95048.28;;;5.83;100.00
6345;BME280;3205;42.666;23.264;2022-10-16T03:26:40;95053.03;;;5.81;100.00
6345;BME280;3205;42.666;23.264;2022-10-16T03:29:07;95051.50;;;5.80;100.00
6345;BME280;3205;42.666;23.264;2022-10-16T03:31:34;95060.91;;;5.81;100.00
6345;BME280;3205;42.666;23.264;2022-10-16T03:34:02;95064.09;;;5.78;100.00
6345;BME280;3205;42.666;23.264;2022-10-16T03:36:29;95062.31;;;5.73;100.00
6345;BME280;3205;42.666;23.264;2022-10-16T03:38:56;95069.66;;;5.76;100.00
6345;BME280;3205;42.666;23.264;2022-10-16T03:41:23;95060.94;;;5.76;100.00
6345;BME280;3205;42.666;23.264;2022-10-16T03:43:50;95057.56;;;5.75;100.00
6345;BME280;3205;42.666;23.264;2022-10-16T03:46:17;95052.38;;;5.70;100.00
6345;BME280;3205;42.666;23.264;2022-10-16T03:48:44;95046.88;;;5.72;100.00
6345;BME280;3205;42.666;23.264;2022-10-16T03:51:12;95050.91;;;5.64;100.00
6345;BME280;3205;42.666;23.264;2022-10-16T03:53:39;95051.59;;;5.70;100.00
6345;BME280;3205;42.666;23.264;2022-10-16T03:56:06;95053.66;;;5.73;100.00
6345;BME280;3205;42.666;23.264;2022-10-16T03:58:32;95052.66;;;5.69;100.00
6345;BME280;3205;42.666;23.264;2022-10-16T04:00:59;95050.03;;;5.69;100.00
6345;BME280;3205;42.666;23.264;2022-10-16T04:03:26;95052.44;;;5.65;100.00
6345;BME280;3205;42.666;23.264;2022-10-16T04:05:53;95044.97;;;5.59;100.00
6345;BME280;3205;42.666;23.264;2022-10-16T04:08:22;95043.97;;;5.55;100.00
6345;BME280;3205;42.666;23.264;2022-10-16T04:10:49;95044.53;;;5.52;100.00
6345;BME280;3205;42.666;23.264;2022-10-16T04:13:16;95051.69;;;5.46;100.00
6345;BME280;3205;42.666;23.264;2022-10-16T04:15:44;95040.50;;;5.41;100.00
6345;BME280;3205;42.666;23.264;2022-10-16T04:18:11;95047.09;;;5.38;100.00
6345;BME280;3205;42.666;23.264;2022-10-16T04:20:38;95059.69;;;5.36;100.00
6345;BME280;3205;42.666;23.264;2022-10-16T04:23:04;95050.28;;;5.35;100.00
6345;BME280;3205;42.666;23.264;2022-10-16T04:25:33;95045.81;;;5.36;100.00
6345;BME280;3205;42.666;23.264;2022-10-16T04:27:59;95055.53;;;5.35;100.00
6345;BME280;3205;42.666;23.264;2022-10-16T04:30:26;95059.00;;;5.31;100.00
6345;BME280;3205;42.666;23.264;2022-10-16T04:32:53;95059.00;;;5.31;100.00
6345;BME280;3205;42.666;23.264;2022-10-16T04:35:21;95066.91;;;5.26;100.00
6345;BME280;3205;42.666;23.264;2022-10-16T04:37:48;95053.25;;;5.29;100.00
6345;BME280;3205;42.666;23.264;2022-10-16T04:40:15;95058.78;;;5.27;100.00
6345;BME280;3205;42.666;23.264;2022-10-16T04:42:44;95060.59;;;5.27;100.00
6345;BME280;3205;42.666;23.264;2022-10-16T04:45:10;95066.91;;;5.26;100.00
6345;BME280;3205;42.666;23.264;2022-10-16T04:47:38;95067.63;;;5.31;100.00
6345;BME280;3205;42.666;23.264;2022-10-16T04:50:05;95060.56;;;5.32;100.00
6345;BME280;3205;42.666;23.264;2022-10-16T04:52:32;95079.81;;;5.41;100.00
6345;BME280;3205;42.666;23.264;2022-10-16T04:54:59;95079.78;;;5.46;100.00
6345;BME280;3205;42.666;23.264;2022-10-16T04:57:28;95083.28;;;5.55;100.00
6345;BME280;3205;42.666;23.264;2022-10-16T04:59:56;95088.75;;;5.58;100.00
6345;BME280;3205;42.666;23.264;2022-10-16T05:02:23;95093.16;;;5.63;100.00
6345;BME280;3205;42.666;23.264;2022-10-16T05:04:50;95092.00;;;5.69;100.00
6345;BME280;3205;42.666;23.264;2022-10-16T05:07:17;95092.44;;;5.76;100.00
6345;BME280;3205;42.666;23.264;2022-10-16T05:09:45;95090.84;;;5.80;100.00
6345;BME280;3205;42.666;23.264;2022-10-16T05:12:11;95096.00;;;5.85;100.00
6345;BME280;3205;42.666;23.264;2022-10-16T05:14:38;95103.16;;;5.97;100.00
6345;BME280;3205;42.666;23.264;2022-10-16T05:17:06;95099.38;;;6.03;100.00
6345;BME280;3205;42.666;23.264;2022-10-16T05:19:33;95098.72;;;6.11;100.00
6345;BME280;3205;42.666;23.264;2022-10-16T05:22:00;95098.28;;;6.23;100.00
6345;BME280;3205;42.666;23.264;2022-10-16T05:24:27;95101.31;;;6.30;100.00
6345;BME280;3205;42.666;23.264;2022-10-16T05:26:54;95105.03;;;6.42;100.00
6345;BME280;3205;42.666;23.264;2022-10-16T05:29:21;95113.03;;;6.64;100.00
6345;BME280;3205;42.666;23.264;2022-10-16T05:31:50;95108.69;;;6.86;100.00
6345;BME280;3205;42.666;23.264;2022-10-16T05:34:19;95103.94;;;7.64;100.00
6345;BME280;3205;42.666;23.264;2022-10-16T05:36:46;95095.25;;;9.67;100.00
6345;BME280;3205;42.666;23.264;2022-10-16T05:39:14;95106.41;;;11.97;100.00
6345;BME280;3205;42.666;23.264;2022-10-16T05:41:41;95119.31;;;14.11;100.00
6345;BME280;3205;42.666;23.264;2022-10-16T05:44:08;95140.66;;;15.86;100.00
6345;BME280;3205;42.666;23.264;2022-10-16T05:46:35;95189.34;;;17.05;100.00
6345;BME280;3205;42.666;23.264;2022-10-16T05:49:02;95199.69;;;17.25;100.00
6345;BME280;3205;42.666;23.264;2022-10-16T05:51:30;95202.34;;;17.44;100.00
6345;BME280;3205;42.666;23.264;2022-10-16T05:53:57;95208.41;;;17.03;100.00
6345;BME280;3205;42.666;23.264;2022-10-16T05:56:24;95215.84;;;16.56;100.00
6345;BME280;3205;42.666;23.264;2022-10-16T05:58:51;95211.94;;;16.20;100.00
6345;BME280;3205;42.666;23.264;2022-10-16T06:01:19;95224.09;;;15.71;100.00
6345;BME280;3205;42.666;23.264;2022-10-16T06:03:49;95225.31;;;15.03;100.00
6345;BME280;3205;42.666;23.264;2022-10-16T06:06:18;95226.63;;;14.43;100.00
6345;BME280;3205;42.666;23.264;2022-10-16T06:08:48;95227.84;;;13.98;100.00
6345;BME280;3205;42.666;23.264;2022-10-16T06:11:18;95236.16;;;13.84;100.00
6345;BME280;3205;42.666;23.264;2022-10-16T06:13:49;95232.19;;;14.14;100.00
6345;BME280;3205;42.666;23.264;2022-10-16T06:16:16;95237.38;;;14.46;100.00
6345;BME280;3205;42.666;23.264;2022-10-16T06:18:43;95238.84;;;14.32;100.00
6345;BME280;3205;42.666;23.264;2022-10-16T06:21:11;95252.09;;;14.68;100.00
6345;BME280;3205;42.666;23.264;2022-10-16T06:23:39;95243.31;;;14.67;100.00
6345;BME280;3205;42.666;23.264;2022-10-16T06:26:08;95246.66;;;14.64;100.00
6345;BME280;3205;42.666;23.264;2022-10-16T06:28:35;95246.00;;;14.94;100.00
6345;BME280;3205;42.666;23.264;2022-10-16T06:31:03;95253.34;;;15.25;100.00
6345;BME280;3205;42.666;23.264;2022-10-16T06:33:31;95253.28;;;15.37;100.00
6345;BME280;3205;42.666;23.264;2022-10-16T06:36:00;95250.94;;;15.93;100.00
6345;BME280;3205;42.666;23.264;2022-10-16T06:38:27;95251.97;;;17.86;100.00
6345;BME280;3205;42.666;23.264;2022-10-16T06:40:54;95240.47;;;19.40;100.00
6345;BME280;3205;42.666;23.264;2022-10-16T06:43:23;95253.91;;;20.20;95.04
6345;BME280;3205;42.666;23.264;2022-10-16T06:45:53;95258.44;;;21.23;83.04
6345;BME280;3205;42.666;23.264;2022-10-16T06:48:20;95252.84;;;23.09;71.87
6345;BME280;3205;42.666;23.264;2022-10-16T06:50:56;95265.66;;;24.41;56.90
6345;BME280;3205;42.666;23.264;2022-10-16T06:53:23;95274.00;;;25.74;52.88
6345;BME280;3205;42.666;23.264;2022-10-16T06:55:50;95279.06;;;27.01;48.27
6345;BME280;3205;42.666;23.264;2022-10-16T06:58:17;95273.63;;;27.62;43.82
6345;BME280;3205;42.666;23.264;2022-10-16T07:00:45;95289.81;;;28.40;41.53
6345;BME280;3205;42.666;23.264;2022-10-16T07:03:13;95288.25;;;27.06;41.86
6345;BME280;3205;42.666;23.264;2022-10-16T07:05:41;95282.25;;;27.96;41.06
6345;BME280;3205;42.666;23.264;2022-10-16T07:08:08;95270.81;;;27.07;42.01
6345;BME280;3205;42.666;23.264;2022-10-16T07:10:35;95287.44;;;24.17;45.85
6345;BME280;3205;42.666;23.264;2022-10-16T07:13:02;95286.75;;;23.07;53.38
6345;BME280;3205;42.666;23.264;2022-10-16T07:15:29;95284.06;;;22.96;54.97
6345;BME280;3205;42.666;23.264;2022-10-16T07:17:57;95292.22;;;22.54;58.30
6345;BME280;3205;42.666;23.264;2022-10-16T07:20:24;95297.53;;;21.99;59.34
6345;BME280;3205;42.666;23.264;2022-10-16T07:22:52;95300.66;;;21.12;64.77
6345;BME280;3205;42.666;23.264;2022-10-16T07:25:19;95300.75;;;21.37;66.36
6345;BME280;3205;42.666;23.264;2022-10-16T07:27:45;95296.88;;;20.70;68.37
6345;BME280;3205;42.666;23.264;2022-10-16T07:30:12;95288.75;;;20.13;75.91
6345;BME280;3205;42.666;23.264;2022-10-16T07:32:39;95294.69;;;20.32;78.65
6345;BME280;3205;42.666;23.264;2022-10-16T07:35:08;95295.81;;;20.31;76.25
6345;BME280;3205;42.666;23.264;2022-10-16T07:37:35;95289.13;;;22.80;62.06
6345;BME280;3205;42.666;23.264;2022-10-16T07:40:02;95296.59;;;24.33;53.71
6345;BME280;3205;42.666;23.264;2022-10-16T07:42:29;95299.25;;;25.94;47.60
6345;BME280;3205;42.666;23.264;2022-10-16T07:44:56;95296.03;;;27.04;44.53
6345;BME280;3205;42.666;23.264;2022-10-16T07:47:22;95289.63;;;28.82;40.35
6345;BME280;3205;42.666;23.264;2022-10-16T07:49:49;95297.00;;;30.35;36.45
6345;BME280;3205;42.666;23.264;2022-10-16T07:52:17;95291.25;;;29.80;36.58
6345;BME280;3205;42.666;23.264;2022-10-16T07:54:44;95307.84;;;30.26;34.79
6345;BME280;3205;42.666;23.264;2022-10-16T07:57:11;95311.97;;;30.18;34.96
6345;BME280;3205;42.666;23.264;2022-10-16T07:59:44;95317.91;;;30.54;34.41
6345;BME280;3205;42.666;23.264;2022-10-16T08:02:10;95315.97;;;30.02;33.58
6345;BME280;3205;42.666;23.264;2022-10-16T08:04:37;95313.28;;;29.29;34.93
6345;BME280;3205;42.666;23.264;2022-10-16T08:07:04;95314.81;;;29.30;35.50
6345;BME280;3205;42.666;23.264;2022-10-16T08:09:34;95310.66;;;30.11;35.25
6345;BME280;3205;42.666;23.264;2022-10-16T08:12:01;95303.00;;;30.92;34.47
6345;BME280;3205;42.666;23.264;2022-10-16T08:14:29;95317.13;;;31.71;32.21
6345;BME280;3205;42.666;23.264;2022-10-16T08:16:56;95312.09;;;29.87;33.76
6345;BME280;3205;42.666;23.264;2022-10-16T08:19:23;95311.03;;;28.96;35.21
6345;BME280;3205;42.666;23.264;2022-10-16T08:21:49;95307.75;;;29.17;35.40
6345;BME280;3205;42.666;23.264;2022-10-16T08:24:16;95306.06;;;30.20;33.90
6345;BME280;3205;42.666;23.264;2022-10-16T08:26:45;95305.09;;;30.88;33.58
6345;BME280;3205;42.666;23.264;2022-10-16T08:29:13;95296.78;;;31.04;32.80
6345;BME280;3205;42.666;23.264;2022-10-16T08:31:40;95298.50;;;31.45;32.40
6345;BME280;3205;42.666;23.264;2022-10-16T08:34:07;95297.53;;;30.92;32.52
6345;BME280;3205;42.666;23.264;2022-10-16T08:36:34;95304.78;;;30.24;33.09
6345;BME280;3205;42.666;23.264;2022-10-16T08:39:01;95303.69;;;30.34;34.00
6345;BME280;3205;42.666;23.264;2022-10-16T08:42:06;95301.56;;;31.13;32.51
6345;BME280;3205;42.666;23.264;2022-10-16T08:47:48;95305.16;;;31.44;30.49
6345;BME280;3205;42.666;23.264;2022-10-16T08:50:22;95307.06;;;31.34;31.75
6345;BME280;3205;42.666;23.264;2022-10-16T08:52:53;95303.72;;;31.52;31.03
6345;BME280;3205;42.666;23.264;2022-10-16T08:55:34;95317.47;;;29.90;32.20
6345;BME280;3205;42.666;23.264;2022-10-16T08:58:11;95313.69;;;30.00;32.41
6345;BME280;3205;42.666;23.264;2022-10-16T09:00:39;95314.53;;;28.29;33.55
6345;BME280;3205;42.666;23.264;2022-10-16T09:03:14;95311.84;;;28.45;34.40
6345;BME280;3205;42.666;23.264;2022-10-16T09:06:04;95311.25;;;29.61;32.37
6345;BME280;3205;42.666;23.264;2022-10-16T09:08:44;95325.88;;;26.29;33.47
6345;BME280;3205;42.666;23.264;2022-10-16T09:11:24;95316.78;;;26.46;35.58
6345;BME280;3205;42.666;23.264;2022-10-16T09:14:02;95312.59;;;26.87;35.09
6345;BME280;3205;42.666;23.264;2022-10-16T09:16:34;95303.59;;;25.88;35.08
6345;BME280;3205;42.666;23.264;2022-10-16T09:19:09;95294.78;;;27.51;34.47
6345;BME280;3205;42.666;23.264;2022-10-16T09:21:41;95305.72;;;27.48;32.25
6345;BME280;3205;42.666;23.264;2022-10-16T09:24:13;95304.53;;;25.42;35.76
6345;BME280;3205;42.666;23.264;2022-10-16T09:26:40;95302.47;;;26.68;35.24
6345;BME280;3205;42.666;23.264;2022-10-16T09:29:11;95300.47;;;27.80;33.49
6345;BME280;3205;42.666;23.264;2022-10-16T09:31:39;95299.22;;;28.19;32.98
6345;BME280;3205;42.666;23.264;2022-10-16T09:34:13;95305.34;;;26.58;33.50
6345;BME280;3205;42.666;23.264;2022-10-16T09:36:44;95307.28;;;25.01;36.12
6345;BME280;3205;42.666;23.264;2022-10-16T09:39:12;95310.50;;;23.60;39.69
6345;BME280;3205;42.666;23.264;2022-10-16T09:41:41;95306.38;;;24.13;38.25
6345;BME280;3205;42.666;23.264;2022-10-16T09:44:18;95310.09;;;23.65;38.41
6345;BME280;3205;42.666;23.264;2022-10-16T09:46:47;95307.41;;;23.62;39.66
6345;BME280;3205;42.666;23.264;2022-10-16T09:49:21;95290.19;;;21.89;42.33
6345;BME280;3205;42.666;23.264;2022-10-16T09:51:49;95295.06;;;20.78;45.99
6345;BME280;3205;42.666;23.264;2022-10-16T09:54:17;95296.84;;;20.67;49.78
6345;BME280;3205;42.666;23.264;2022-10-16T09:56:45;95286.44;;;20.12;51.08
6345;BME280;3205;42.666;23.264;2022-10-16T09:59:17;95286.16;;;18.92;53.34
6345;BME280;3205;42.666;23.264;2022-10-16T10:01:46;95278.63;;;18.46;60.06
6345;BME280;3205;42.666;23.264;2022-10-16T10:04:13;95291.66;;;18.25;65.00
6345;BME280;3205;42.666;23.264;2022-10-16T10:06:43;95286.00;;;18.08;66.17
6345;BME280;3205;42.666;23.264;2022-10-16T10:09:17;95284.50;;;17.66;64.12
6345;BME280;3205;42.666;23.264;2022-10-16T10:11:52;95284.16;;;17.48;65.36
6345;BME280;3205;42.666;23.264;2022-10-16T10:14:28;95301.53;;;17.39;69.20
6345;BME280;3205;42.666;23.264;2022-10-16T10:17:09;95284.84;;;17.08;69.22
6345;BME280;3205;42.666;23.264;2022-10-16T10:19:42;95286.59;;;17.19;70.74
6345;BME280;3205;42.666;23.264;2022-10-16T10:22:27;95295.88;;;17.25;72.38
6345;BME280;3205;42.666;23.264;2022-10-16T10:27:42;95281.31;;;17.22;72.62
6345;BME280;3205;42.666;23.264;2022-10-16T10:30:18;95276.22;;;16.80;73.01
6345;BME280;3205;42.666;23.264;2022-10-16T10:32:57;95270.81;;;16.95;78.93
6345;BME280;3205;42.666;23.264;2022-10-16T10:35:36;95270.00;;;16.91;75.72
6345;BME280;3205;42.666;23.264;2022-10-16T10:38:18;95264.88;;;17.02;76.69
6345;BME280;3205;42.666;23.264;2022-10-16T10:40:51;95264.94;;;17.05;75.23
6345;BME280;3205;42.666;23.264;2022-10-16T10:43:31;95254.66;;;17.07;71.78
6345;BME280;3205;42.666;23.264;2022-10-16T10:46:11;95255.22;;;17.16;70.32
6345;BME280;3205;42.666;23.264;2022-10-16T10:48:51;95256.78;;;17.17;70.89
6345;BME280;3205;42.666;23.264;2022-10-16T10:51:28;95247.16;;;17.12;69.75
6345;BME280;3205;42.666;23.264;2022-10-16T10:54:06;95241.09;;;17.15;73.44
6345;BME280;3205;42.666;23.264;2022-10-16T10:56:46;95235.41;;;17.17;71.65
6345;BME280;3205;42.666;23.264;2022-10-16T11:02:36;95238.78;;;17.14;74.74
6345;BME280;3205;42.666;23.264;2022-10-16T11:05:38;95233.84;;;17.16;76.81
6345;BME280;3205;42.666;23.264;2022-10-16T11:08:10;95227.53;;;17.24;77.09
6345;BME280;3205;42.666;23.264;2022-10-16T11:10:44;95240.03;;;17.01;70.94
6345;BME280;3205;42.666;23.264;2022-10-16T11:13:19;95234.84;;;16.89;69.53
6345;BME280;3205;42.666;23.264;2022-10-16T11:15:52;95234.78;;;17.05;69.43
6345;BME280;3205;42.666;23.264;2022-10-16T11:18:24;95232.03;;;17.01;67.22
6345;BME280;3205;42.666;23.264;2022-10-16T11:20:56;95232.75;;;16.98;67.14
6345;BME280;3205;42.666;23.264;2022-10-16T11:23:27;95231.38;;;16.89;70.01
6345;BME280;3205;42.666;23.264;2022-10-16T11:25:59;95222.88;;;16.64;63.38
6345;BME280;3205;42.666;23.264;2022-10-16T11:28:31;95230.63;;;16.88;64.57
6345;BME280;3205;42.666;23.264;2022-10-16T11:31:04;95229.13;;;16.91;62.61
6345;BME280;3205;42.666;23.264;2022-10-16T11:33:39;95228.09;;;16.95;60.48
6345;BME280;3205;42.666;23.264;2022-10-16T11:36:12;95222.59;;;16.88;60.62
6345;BME280;3205;42.666;23.264;2022-10-16T11:38:44;95206.16;;;16.86;63.12
6345;BME280;3205;42.666;23.264;2022-10-16T11:41:19;95213.16;;;17.13;66.25
6345;BME280;3205;42.666;23.264;2022-10-16T11:43:53;95227.84;;;17.22;65.54
6345;BME280;3205;42.666;23.264;2022-10-16T11:46:26;95216.84;;;17.24;60.13
6345;BME280;3205;42.666;23.264;2022-10-16T11:49:00;95228.66;;;17.23;66.85
6345;BME280;3205;42.666;23.264;2022-10-16T11:51:35;95214.16;;;17.24;67.23
6345;BME280;3205;42.666;23.264;2022-10-16T11:54:08;95222.50;;;17.22;62.67
6345;BME280;3205;42.666;23.264;2022-10-16T11:56:42;95224.50;;;17.25;56.38
6345;BME280;3205;42.666;23.264;2022-10-16T11:59:16;95226.66;;;17.20;66.31
6345;BME280;3205;42.666;23.264;2022-10-16T12:01:49;95219.81;;;17.19;69.92
6345;BME280;3205;42.666;23.264;2022-10-16T12:04:26;95220.50;;;17.16;67.90
6345;BME280;3205;42.666;23.264;2022-10-16T12:07:04;95215.28;;;17.23;66.34
6345;BME280;3205;42.666;23.264;2022-10-16T12:09:35;95212.84;;;17.33;65.82
6345;BME280;3205;42.666;23.264;2022-10-16T12:12:04;95209.94;;;17.42;67.72
6345;BME280;3205;42.666;23.264;2022-10-16T12:14:37;95208.88;;;17.46;67.32
6345;BME280;3205;42.666;23.264;2022-10-16T12:17:23;95212.19;;;17.40;63.54
6345;BME280;3205;42.666;23.264;2022-10-16T12:19:59;95212.78;;;17.30;65.37
6345;BME280;3205;42.666;23.264;2022-10-16T12:22:28;95226.56;;;17.32;59.57
6345;BME280;3205;42.666;23.264;2022-10-16T12:24:56;95216.84;;;17.24;66.74
6345;BME280;3205;42.666;23.264;2022-10-16T12:27:28;95224.16;;;17.27;71.76
6345;BME280;3205;42.666;23.264;2022-10-16T12:29:56;95220.19;;;17.21;72.28
6345;BME280;3205;42.666;23.264;2022-10-16T12:32:29;95218.50;;;17.13;73.59
6345;BME280;3205;42.666;23.264;2022-10-16T12:34:59;95216.34;;;17.18;75.96
6345;BME280;3205;42.666;23.264;2022-10-16T12:37:29;95217.59;;;17.24;76.69
6345;BME280;3205;42.666;23.264;2022-10-16T12:39:59;95213.91;;;17.29;76.18
6345;BME280;3205;42.666;23.264;2022-10-16T12:42:33;95217.41;;;17.33;75.04
6345;BME280;3205;42.666;23.264;2022-10-16T12:45:01;95214.72;;;17.33;73.62
6345;BME280;3205;42.666;23.264;2022-10-16T12:47:48;95217.41;;;17.33;71.91
6345;BME280;3205;42.666;23.264;2022-10-16T12:50:33;95217.97;;;17.42;73.02
6345;BME280;3205;42.666;23.264;2022-10-16T12:53:02;95220.63;;;17.42;71.88
6345;BME280;3205;42.666;23.264;2022-10-16T12:55:42;95222.47;;;17.38;73.88
6345;BME280;3205;42.666;23.264;2022-10-16T12:58:28;95231.91;;;17.32;71.84
6345;BME280;3205;42.666;23.264;2022-10-16T13:01:04;95225.63;;;17.24;71.06
6345;BME280;3205;42.666;23.264;2022-10-16T13:06:53;95235.28;;;17.29;72.94
6345;BME280;3205;42.666;23.264;2022-10-16T13:09:36;95238.97;;;17.24;70.97
6345;BME280;3205;42.666;23.264;2022-10-16T13:12:29;95229.69;;;17.18;67.24
6345;BME280;3205;42.666;23.264;2022-10-16T13:15:22;95225.53;;;17.21;70.15
6345;BME280;3205;42.666;23.264;2022-10-16T13:17:58;95227.75;;;17.15;68.69
6345;BME280;3205;42.666;23.264;2022-10-16T13:20:33;95221.38;;;17.23;66.86
6345;BME280;3205;42.666;23.264;2022-10-16T13:23:12;95229.78;;;17.22;66.12
6345;BME280;3205;42.666;23.264;2022-10-16T13:25:53;95230.34;;;17.12;69.15
6345;BME280;3205;42.666;23.264;2022-10-16T13:28:28;95227.81;;;17.19;71.09
6345;BME280;3205;42.666;23.264;2022-10-16T13:30:58;95231.25;;;17.19;73.49
6345;BME280;3205;42.666;23.264;2022-10-16T13:33:31;95227.81;;;17.19;68.77
6345;BME280;3205;42.666;23.264;2022-10-16T13:35:59;95229.34;;;17.20;68.90
6345;BME280;3205;42.666;23.264;2022-10-16T13:38:28;95227.53;;;17.24;67.25
6345;BME280;3205;42.666;23.264;2022-10-16T13:40:57;95237.09;;;17.25;68.36